Rechercher aéroport 
image banner adimage banner adimage banner ad
image banner ad

L17 - Taft-Kern County

Situé à Taft, United States

ICAO - L17, IATA -

Données fournies par Airmate  

Information générale

Coordonnées: N35°8'30" W119°26'16"
Élévation : 858 feet MSL.
Variation magnétique : 14° East
Voir autres Aéroports à California

Données opérationnelles

Special qualification required
Heure actuelle UTC:
Heure actuelle locale:
Météo à : KBFL - Meadows Field ( 47 km )
METAR: KBFL 212254Z 31012KT 3SM HZ FU CLR 37/11 A2999 RMK AO2 SLP146 T03720106
TAF: KBFL 211720Z 2118/2218 28005KT 6SM HZ FU SKC FM212100 30008KT P6SM SKC FM220400 35006KT P6SM SKC FM220900 VRB03KT P6SM SKC
Voir NOTAMs / SUP AIP / TFR affectant cet aéroport [VIEW]
Fréquences de communication: [VIEW]

Pistes:

Identifiant RWYQFULongueur (ft)Largeur (ft)SurfaceLDA (ft)
0780°328360ASPH
25260°328360ASPH

Coordonnées de l'aéroport

Adresse: Taft United States

Vue satellite de L17